Time;durP1;ratioP1;P1;durP2;ratioP2;P2;SDS_P1;SDS_P2;PMS_P1;PMS_P2;Temp;Humidity;BMP_temperature;BMP_pressure;BME280_temperature;BME280_humidity;BME280_pressure;Samples;Min_cycle;Max_cycle;Signal;HPM_P1;HPM_P2
2022/08/05 00:01:20;;;;;;;;;10.25;10.25;;;;;17.31;100.00;100473.31;5074471;28;45442;-77
2022/08/05 00:03:49;;;;;;;;;7.25;7.25;;;;;17.22;100.00;100505.88;5076155;27;45422;-77
2022/08/05 00:06:15;;;;;;;;;8.00;8.00;;;;;17.08;100.00;100544.00;5076100;27;45479;-75
2022/08/05 00:08:41;;;;;;;;;7.50;7.50;;;;;17.02;100.00;100611.72;5075734;27;45849;-76
2022/08/05 00:11:14;;;;;;;;;9.25;9.25;;;;;17.05;100.00;100685.06;5074736;28;45359;-78
2022/08/05 00:13:41;;;;;;;;;7.75;7.75;;;;;17.16;100.00;100695.00;5074525;28;45409;-74
2022/08/05 00:16:09;;;;;;;;;9.50;9.50;;;;;17.22;100.00;100783.16;5076003;27;45375;-77
2022/08/05 00:18:36;;;;;;;;;8.00;8.00;;;;;17.36;100.00;100795.53;5075950;27;45249;-74
2022/08/05 00:21:01;;;;;;;;;7.25;7.25;;;;;17.47;100.00;100786.84;5075402;27;45329;-73
2022/08/05 00:23:26;;;;;;;;;11.50;11.50;;;;;17.60;100.00;100786.06;5075630;27;45646;-74
2022/08/05 00:25:52;;;;;;;;;7.75;7.75;;;;;17.76;100.00;100746.81;5075316;27;45480;-76
2022/08/05 00:28:17;;;;;;;;;9.00;9.00;;;;;17.86;100.00;100763.00;5078198;27;45266;-75
2022/08/05 00:30:42;;;;;;;;;6.25;6.25;;;;;17.77;100.00;100779.59;5078920;27;45351;-76
2022/08/05 00:33:08;;;;;;;;;6.50;6.50;;;;;17.93;100.00;100774.09;5076074;28;45325;-78
2022/08/05 00:35:33;;;;;;;;;7.00;7.00;;;;;17.89;100.00;100698.91;5075798;28;45545;-74
2022/08/05 00:37:59;;;;;;;;;7.25;7.25;;;;;18.00;100.00;100678.69;5075570;28;45554;-73
2022/08/05 00:40:26;;;;;;;;;10.00;10.00;;;;;18.08;100.00;100743.78;5076207;28;45305;-76
2022/08/05 00:42:52;;;;;;;;;7.00;7.00;;;;;18.16;100.00;100792.97;5077071;27;45610;-76
2022/08/05 00:45:17;;;;;;;;;9.50;9.50;;;;;18.25;100.00;100833.16;5073894;28;47475;-77
2022/08/05 00:47:43;;;;;;;;;6.25;6.25;;;;;18.34;100.00;100841.47;5075420;28;45275;-76
2022/08/05 00:50:09;;;;;;;;;8.25;7.50;;;;;18.36;100.00;100770.31;5075060;27;45333;-77
2022/08/05 00:52:34;;;;;;;;;7.50;7.50;;;;;18.35;100.00;100713.50;5075004;28;45617;-75
2022/08/05 00:55:00;;;;;;;;;9.25;9.25;;;;;18.34;100.00;100729.63;5083407;28;45816;-76
2022/08/05 00:57:25;;;;;;;;;6.50;6.50;;;;;18.35;100.00;100716.19;5083520;27;45386;-74
2022/08/05 00:59:51;;;;;;;;;7.25;7.25;;;;;18.35;100.00;100702.03;5084291;28;45335;-75
2022/08/05 01:02:16;;;;;;;;;6.00;6.00;;;;;18.33;100.00;100735.91;5080196;27;45298;-75
2022/08/05 01:04:42;;;;;;;;;8.50;8.50;;;;;18.33;100.00;100847.75;5075156;27;45288;-75
2022/08/05 01:07:07;;;;;;;;;7.00;7.00;;;;;18.32;100.00;100803.44;5075588;27;45320;-73
2022/08/05 01:09:32;;;;;;;;;7.75;7.75;;;;;18.35;100.00;100789.91;5075294;27;45354;-73
2022/08/05 01:12:03;;;;;;;;;7.50;7.50;;;;;18.30;100.00;100701.50;5088724;28;45321;-72
2022/08/05 01:14:39;;;;;;;;;6.00;6.00;;;;;18.23;100.00;100634.50;5096585;27;46583;-75
2022/08/05 01:17:09;;;;;;;;;7.50;7.50;;;;;18.08;100.00;100700.38;5079782;28;45390;-73
2022/08/05 01:19:42;;;;;;;;;7.25;7.25;;;;;18.00;100.00;100804.69;5079814;27;45381;-74
2022/08/05 01:22:34;;;;;;;;;8.00;7.75;;;;;17.89;100.00;100778.75;5078582;27;45598;-75
2022/08/05 01:25:28;;;;;;;;;8.00;8.00;;;;;17.66;100.00;100789.16;5078122;27;45409;-73
2022/08/05 01:28:05;;;;;;;;;5.25;5.25;;;;;17.50;100.00;100802.63;5078367;28;45292;-75
2022/08/05 01:30:35;;;;;;;;;8.00;8.00;;;;;17.36;100.00;100779.59;5078287;27;45550;-74
2022/08/05 01:33:06;;;;;;;;;7.75;7.75;;;;;17.31;100.00;100739.16;5078418;27;45547;-76
2022/08/05 01:35:34;;;;;;;;;8.25;8.25;;;;;17.23;100.00;100698.94;5076175;28;48403;-76
2022/08/05 01:38:02;;;;;;;;;7.50;7.50;;;;;17.22;100.00;100714.03;5078091;27;45458;-76
2022/08/05 01:40:30;;;;;;;;;6.00;6.00;;;;;17.21;100.00;100687.56;5078161;27;45251;-77
2022/08/05 01:42:57;;;;;;;;;5.50;5.50;;;;;17.20;100.00;100653.97;5078006;27;45627;-74
2022/08/05 01:45:25;;;;;;;;;5.25;5.25;;;;;17.22;100.00;100639.59;5077852;27;48158;-74
2022/08/05 01:47:54;;;;;;;;;6.50;6.00;;;;;17.25;100.00;100667.81;5079707;27;45374;-75
2022/08/05 01:50:29;;;;;;;;;7.00;7.00;;;;;17.31;100.00;100717.03;5080119;27;45199;-78
2022/08/05 01:53:00;;;;;;;;;6.00;6.00;;;;;17.37;100.00;100698.00;5094065;27;45555;-74
2022/08/05 01:55:28;;;;;;;;;6.00;6.00;;;;;17.36;100.00;100705.16;5077634;27;45534;-74
2022/08/05 01:57:56;;;;;;;;;9.25;9.25;;;;;17.37;100.00;100716.63;5077753;27;45347;-75
2022/08/05 02:00:22;;;;;;;;;10.00;10.00;;;;;17.28;100.00;100718.09;5077688;28;45390;-76
2022/08/05 02:03:00;;;;;;;;;8.50;8.50;;;;;17.16;100.00;100697.66;5077679;28;45385;-75
2022/08/05 02:05:31;;;;;;;;;9.25;9.25;;;;;17.07;100.00;100667.22;5077481;28;45543;-74
2022/08/05 02:07:57;;;;;;;;;16.50;15.75;;;;;17.04;100.00;100692.19;5077404;27;45506;-73
2022/08/05 02:10:31;;;;;;;;;8.50;8.50;;;;;17.03;100.00;100708.22;5075818;28;45419;-76
2022/08/05 02:13:07;;;;;;;;;7.00;7.00;;;;;16.99;100.00;100709.38;5075961;27;45677;-76
2022/08/05 02:15:42;;;;;;;;;8.00;8.00;;;;;16.92;100.00;100706.22;5077301;27;45307;-75
2022/08/05 02:18:19;;;;;;;;;9.00;9.00;;;;;16.84;100.00;100735.97;5077262;27;45387;-74
2022/08/05 02:20:51;;;;;;;;;11.75;10.75;;;;;16.74;100.00;100725.06;5077504;27;45381;-75
2022/08/05 02:23:21;;;;;;;;;10.75;10.25;;;;;16.73;100.00;100722.53;5077276;27;45361;-75
2022/08/05 02:25:49;;;;;;;;;11.00;11.00;;;;;16.73;100.00;100718.03;5076688;27;45999;-75
2022/08/05 02:28:21;;;;;;;;;9.50;9.50;;;;;16.71;100.00;100721.75;5075822;27;45333;-76
2022/08/05 02:30:52;;;;;;;;;9.75;9.75;;;;;16.68;100.00;100749.34;5075363;27;45269;-77
2022/08/05 02:33:21;;;;;;;;;9.25;9.25;;;;;16.65;100.00;100758.38;5077244;28;45438;-72
2022/08/05 02:35:48;;;;;;;;;9.00;9.00;;;;;16.63;100.00;100757.63;5075432;27;47342;-73
2022/08/05 02:38:14;;;;;;;;;8.00;8.00;;;;;16.62;100.00;100766.53;5077103;27;45355;-76
2022/08/05 02:40:42;;;;;;;;;6.50;6.50;;;;;16.55;100.00;100746.63;5076882;27;45305;-76
2022/08/05 02:43:09;;;;;;;;;11.75;11.75;;;;;16.56;100.00;100753.66;5077674;27;45578;-78
2022/08/05 02:45:36;;;;;;;;;10.00;10.00;;;;;16.57;100.00;100749.19;5076363;27;46700;-77
2022/08/05 02:48:03;;;;;;;;;9.00;9.00;;;;;16.53;100.00;100763.59;5075461;28;45275;-74
2022/08/05 02:50:29;;;;;;;;;6.00;6.00;;;;;16.53;100.00;100697.22;5077133;27;45283;-75
2022/08/05 02:52:56;;;;;;;;;10.50;10.50;;;;;16.54;100.00;100648.47;5076963;27;45418;-75
2022/08/05 02:55:22;;;;;;;;;7.75;7.75;;;;;16.58;100.00;100666.78;5076531;27;45498;-75
2022/08/05 02:57:49;;;;;;;;;9.00;9.00;;;;;16.60;100.00;100688.78;5077699;28;45381;-74
2022/08/05 03:00:15;;;;;;;;;8.75;8.75;;;;;16.64;100.00;100673.47;5079037;27;45441;-75
2022/08/05 03:02:43;;;;;;;;;9.25;9.25;;;;;16.64;100.00;100670.84;5081022;27;45327;-75
2022/08/05 03:05:11;;;;;;;;;7.00;7.00;;;;;16.69;100.00;100692.63;5080158;27;46560;-77
2022/08/05 03:07:38;;;;;;;;;8.00;8.00;;;;;16.67;100.00;100717.59;5079145;27;45368;-74
2022/08/05 03:10:03;;;;;;;;;8.25;8.25;;;;;16.66;100.00;100724.69;5079419;27;45323;-75
2022/08/05 03:12:37;;;;;;;;;5.50;5.50;;;;;16.70;100.00;100744.81;5075457;27;45413;-74
2022/08/05 03:15:04;;;;;;;;;8.50;8.50;;;;;16.75;100.00;100752.50;5076487;28;46522;-75
2022/08/05 03:17:30;;;;;;;;;8.75;8.75;;;;;16.77;100.00;100738.16;5076141;27;45454;-76
2022/08/05 03:19:55;;;;;;;;;9.00;9.00;;;;;16.84;100.00;100740.41;5076308;28;45383;-76
2022/08/05 03:22:20;;;;;;;;;5.75;5.75;;;;;16.91;100.00;100725.78;5075014;28;45709;-78
2022/08/05 03:24:48;;;;;;;;;3.50;2.75;;;;;16.93;100.00;100710.59;5076508;27;45590;-76
2022/08/05 03:27:14;;;;;;;;;5.50;5.50;;;;;16.89;100.00;100703.78;5076142;28;45283;-77
2022/08/05 03:29:40;;;;;;;;;7.25;7.25;;;;;16.84;100.00;100714.72;5076184;27;45263;-78
2022/08/05 03:32:07;;;;;;;;;5.00;5.00;;;;;16.84;100.00;100725.34;5076020;27;45589;-76
2022/08/05 03:34:33;;;;;;;;;4.25;4.25;;;;;16.79;100.00;100720.31;5076082;27;46193;-78
2022/08/05 03:36:59;;;;;;;;;6.00;6.00;;;;;16.86;100.00;100728.75;5074932;28;45954;-76
2022/08/05 03:39:25;;;;;;;;;5.50;5.50;;;;;16.88;100.00;100726.84;5076235;27;45412;-76
2022/08/05 03:41:50;;;;;;;;;4.75;4.75;;;;;16.88;100.00;100724.19;5074763;28;45419;-74
2022/08/05 03:44:15;;;;;;;;;6.25;6.25;;;;;16.92;100.00;100738.09;5076280;27;46365;-77
2022/08/05 03:46:40;;;;;;;;;6.00;6.00;;;;;16.96;100.00;100747.59;5074566;28;45698;-75
2022/08/05 03:49:06;;;;;;;;;6.50;6.50;;;;;16.99;100.00;100742.13;5075797;27;45249;-73
2022/08/05 03:51:37;;;;;;;;;3.25;3.25;;;;;17.04;100.00;100748.00;5076251;27;45508;-75
2022/08/05 03:54:13;;;;;;;;;5.00;5.00;;;;;17.05;100.00;100728.44;5074534;27;46587;-76
2022/08/05 03:56:41;;;;;;;;;5.50;5.50;;;;;17.10;100.00;100745.91;5074411;27;45414;-76
2022/08/05 03:59:29;;;;;;;;;5.75;5.75;;;;;17.13;100.00;100748.34;5077252;27;45329;-79
2022/08/05 04:01:56;;;;;;;;;6.25;6.25;;;;;17.17;100.00;100755.19;5090616;28;45282;-74
2022/08/05 04:04:23;;;;;;;;;6.25;6.25;;;;;17.17;100.00;100741.88;5083409;27;45447;-75
2022/08/05 04:06:50;;;;;;;;;6.00;6.00;;;;;17.21;100.00;100732.75;5078566;28;46001;-76
2022/08/05 04:09:16;;;;;;;;;4.25;4.25;;;;;17.21;100.00;100727.44;5075966;27;45353;-77
2022/08/05 04:11:42;;;;;;;;;4.50;4.50;;;;;17.16;100.00;100717.09;5076277;27;45663;-74
2022/08/05 04:14:08;;;;;;;;;5.00;5.00;;;;;17.16;100.00;100729.56;5075568;27;46257;-76
2022/08/05 04:16:36;;;;;;;;;5.00;5.00;;;;;17.12;100.00;100722.72;5075537;27;45509;-73
2022/08/05 04:19:02;;;;;;;;;4.25;4.25;;;;;17.15;100.00;100735.81;5075681;27;45471;-74
2022/08/05 04:21:28;;;;;;;;;6.25;6.25;;;;;17.13;100.00;100740.38;5076037;27;45318;-76
2022/08/05 04:23:54;;;;;;;;;6.00;6.00;;;;;17.13;100.00;100751.00;5075930;27;45365;-73
2022/08/05 04:26:19;;;;;;;;;0.00;0.00;;;;;17.11;100.00;100736.97;5076093;28;45279;-73
2022/08/05 04:28:45;;;;;;;;;6.00;6.00;;;;;17.10;100.00;100738.75;5078997;27;45377;-75
2022/08/05 04:31:11;;;;;;;;;7.00;7.00;;;;;17.08;100.00;100738.88;5075059;28;45545;-75
2022/08/05 04:33:36;;;;;;;;;6.00;6.00;;;;;17.04;100.00;100739.16;5076185;28;47276;-75
2022/08/05 04:36:02;;;;;;;;;6.00;6.00;;;;;17.03;100.00;100735.66;5076865;27;45519;-77
2022/08/05 04:38:27;;;;;;;;;6.00;6.00;;;;;17.03;100.00;100734.81;5075415;28;45310;-78
2022/08/05 04:40:53;;;;;;;;;3.75;3.75;;;;;17.06;100.00;100737.25;5076581;27;45247;-73
2022/08/05 04:43:18;;;;;;;;;5.75;5.75;;;;;17.07;100.00;100731.84;5077988;28;45532;-76
2022/08/05 04:45:43;;;;;;;;;7.75;7.75;;;;;17.07;100.00;100742.50;5075553;27;45390;-76
2022/08/05 04:48:11;;;;;;;;;6.75;6.75;;;;;17.10;100.00;100736.09;5075481;27;45494;-75
2022/08/05 04:50:43;;;;;;;;;7.50;7.50;;;;;17.13;100.00;100741.22;5076236;27;46112;-76
2022/08/05 04:53:09;;;;;;;;;7.00;7.00;;;;;17.09;100.00;100742.38;5078408;28;46676;-75
2022/08/05 04:55:39;;;;;;;;;7.25;7.25;;;;;17.13;100.00;100748.34;5078420;27;45268;-74
2022/08/05 04:58:06;;;;;;;;;5.50;5.50;;;;;17.19;100.00;100758.59;5079686;27;45414;-75
2022/08/05 05:00:34;;;;;;;;;8.25;8.25;;;;;17.25;100.00;100765.28;5081559;27;45349;-74
2022/08/05 05:03:00;;;;;;;;;8.50;8.50;;;;;17.31;100.00;100760.44;5084823;28;47445;-73
2022/08/05 05:05:26;;;;;;;;;7.00;7.00;;;;;17.36;100.00;100749.47;5088083;27;45279;-73
2022/08/05 05:07:53;;;;;;;;;6.00;6.00;;;;;17.51;100.00;100755.59;5080242;28;45318;-75
2022/08/05 05:10:18;;;;;;;;;6.75;6.75;;;;;17.55;100.00;100754.44;5078234;27;45598;-76
2022/08/05 05:12:43;;;;;;;;;7.00;7.00;;;;;17.62;100.00;100757.56;5077767;27;45413;-75
2022/08/05 05:15:09;;;;;;;;;6.75;6.75;;;;;17.70;100.00;100770.31;5076562;28;47436;-76
2022/08/05 05:17:40;;;;;;;;;7.25;7.25;;;;;17.75;100.00;100779.72;5077952;27;45397;-76
2022/08/05 05:20:07;;;;;;;;;7.75;7.75;;;;;17.80;100.00;100779.38;5078557;27;45230;-76
2022/08/05 05:22:34;;;;;;;;;5.25;5.25;;;;;17.87;100.00;100780.66;5076789;27;46841;-74
2022/08/05 05:24:59;;;;;;;;;6.00;6.00;;;;;17.95;100.00;100791.63;5078016;27;45570;-76
2022/08/05 05:27:30;;;;;;;;;7.00;7.00;;;;;18.01;100.00;100786.88;5078335;27;45397;-73
2022/08/05 05:29:55;;;;;;;;;7.00;7.00;;;;;18.06;100.00;100798.09;5078445;27;45246;-74
2022/08/05 05:32:20;;;;;;;;;6.00;6.00;;;;;18.03;100.00;100785.84;5078359;27;46303;-74
2022/08/05 05:34:46;;;;;;;;;7.00;7.00;;;;;18.11;100.00;100801.31;5059641;28;45394;-76
2022/08/05 05:37:11;;;;;;;;;6.00;6.00;;;;;18.10;100.00;100797.78;5076539;28;45318;-74
2022/08/05 05:39:37;;;;;;;;;7.25;7.25;;;;;18.14;100.00;100811.72;5078188;27;45577;-75
2022/08/05 05:42:02;;;;;;;;;7.00;7.00;;;;;18.18;100.00;100815.88;5077923;27;45351;-73
2022/08/05 05:44:28;;;;;;;;;6.00;6.00;;;;;18.22;100.00;100822.72;5077746;28;45403;-77
2022/08/05 05:46:53;;;;;;;;;6.00;6.00;;;;;18.23;100.00;100819.09;5077155;27;45398;-74
2022/08/05 05:49:18;;;;;;;;;8.00;7.75;;;;;18.30;100.00;100824.81;5082272;27;45330;-75
2022/08/05 05:51:44;;;;;;;;;6.00;6.00;;;;;18.36;100.00;100826.22;5077486;27;45390;-75
2022/08/05 05:54:09;;;;;;;;;5.75;5.75;;;;;18.33;100.00;100824.59;5077529;27;45393;-76
2022/08/05 05:56:34;;;;;;;;;5.50;5.50;;;;;18.26;100.00;100831.31;5077955;27;45429;-75
2022/08/05 05:59:04;;;;;;;;;7.00;7.00;;;;;18.19;100.00;100830.91;5077982;27;45427;-76
2022/08/05 06:01:35;;;;;;;;;6.25;6.25;;;;;18.10;100.00;100832.38;5077501;27;47026;-75
2022/08/05 06:04:00;;;;;;;;;4.75;4.75;;;;;18.10;100.00;100837.69;5077372;28;45358;-77
2022/08/05 06:06:26;;;;;;;;;8.25;8.25;;;;;18.06;100.00;100835.38;5078032;27;45236;-77
2022/08/05 06:08:51;;;;;;;;;8.00;6.25;;;;;18.03;100.00;100847.06;5078390;27;45612;-74
2022/08/05 06:11:17;;;;;;;;;5.00;5.00;;;;;17.98;100.00;100846.47;5077145;27;46281;-77
2022/08/05 06:13:42;;;;;;;;;6.00;6.00;;;;;17.93;100.00;100849.44;5077279;27;45472;-75
2022/08/05 06:16:07;;;;;;;;;8.00;8.00;;;;;17.89;100.00;100855.91;5077456;27;45404;-76
2022/08/05 06:18:33;;;;;;;;;7.00;7.00;;;;;17.88;100.00;100854.22;5076640;27;45528;-76
2022/08/05 06:20:58;;;;;;;;;7.00;7.00;;;;;17.83;100.00;100847.50;5069951;28;45303;-78
2022/08/05 06:23:24;;;;;;;;;7.50;7.50;;;;;17.86;100.00;100855.28;5076654;28;45248;-78
2022/08/05 06:25:50;;;;;;;;;8.25;8.25;;;;;17.90;100.00;100857.63;5076379;28;45825;-77
2022/08/05 06:28:15;;;;;;;;;8.75;8.75;;;;;17.92;100.00;100866.38;5075744;27;45441;-74
2022/08/05 06:30:41;;;;;;;;;7.00;7.00;;;;;17.98;100.00;100865.13;5072650;27;46358;-73
2022/08/05 06:33:06;;;;;;;;;7.50;7.50;;;;;18.07;100.00;100866.34;5076137;28;45299;-74
2022/08/05 06:35:31;;;;;;;;;7.75;7.75;;;;;18.12;100.00;100860.69;5075749;27;45397;-72
2022/08/05 06:37:57;;;;;;;;;8.00;8.00;;;;;18.14;100.00;100859.66;5077674;27;45614;-72
2022/08/05 06:40:22;;;;;;;;;8.25;8.25;;;;;18.14;100.00;100858.78;5075478;27;46711;-72
2022/08/05 06:42:49;;;;;;;;;7.75;7.50;;;;;18.10;100.00;100843.03;5075838;27;45343;-69
2022/08/05 06:45:14;;;;;;;;;6.25;6.25;;;;;18.22;100.00;100857.31;5077977;27;45451;-71
2022/08/05 06:47:40;;;;;;;;;8.25;8.25;;;;;18.28;100.00;100855.19;5075922;27;45432;-71
2022/08/05 06:50:05;;;;;;;;;6.00;6.00;;;;;18.30;100.00;100859.44;5081522;27;45550;-71
2022/08/05 06:52:31;;;;;;;;;4.50;4.50;;;;;18.35;100.00;100864.47;5087561;27;45268;-76
2022/08/05 06:54:56;;;;;;;;;8.00;8.00;;;;;18.36;100.00;100859.03;5080822;28;45374;-79
2022/08/05 06:57:22;;;;;;;;;7.50;7.50;;;;;18.41;100.00;100864.03;5073567;27;45480;-73
2022/08/05 06:59:47;;;;;;;;;7.75;7.75;;;;;18.48;100.00;100867.97;5077344;27;46070;-74
2022/08/05 07:02:12;;;;;;;;;6.00;6.00;;;;;18.47;100.00;100863.63;5075012;27;45477;-75
2022/08/05 07:04:38;;;;;;;;;7.50;7.50;;;;;18.57;100.00;100871.84;5079460;27;45440;-76
2022/08/05 07:07:03;;;;;;;;;7.75;7.75;;;;;18.64;100.00;100878.44;5079871;27;45433;-76
2022/08/05 07:09:28;;;;;;;;;9.00;9.00;;;;;18.57;100.00;100849.66;5078274;27;45840;-81
2022/08/05 07:11:55;;;;;;;;;7.75;7.75;;;;;18.69;100.00;100859.44;5074795;27;45222;-72
2022/08/05 07:17:04;;;;;;;;;7.25;7.25;;;;;18.94;100.00;100879.03;5074697;27;45473;-70
2022/08/05 07:19:29;;;;;;;;;7.75;7.75;;;;;19.01;100.00;100880.34;5074094;28;45425;-74
2022/08/05 07:21:56;;;;;;;;;6.50;6.50;;;;;19.12;100.00;100879.59;5074944;27;45323;-74
2022/08/05 07:24:22;;;;;;;;;8.75;8.75;;;;;19.21;100.00;100888.75;5076165;28;45441;-74
2022/08/05 07:26:47;;;;;;;;;10.50;9.75;;;;;19.23;100.00;100876.16;5075980;27;45307;-75
2022/08/05 07:29:13;;;;;;;;;11.50;11.00;;;;;19.36;100.00;100892.97;5074648;28;45467;-74
2022/08/05 07:31:39;;;;;;;;;9.75;9.75;;;;;19.40;99.02;100898.91;5075783;27;45408;-74
2022/08/05 07:34:05;;;;;;;;;8.50;8.50;;;;;19.37;99.53;100889.34;5075828;28;45460;-74
2022/08/05 07:36:32;;;;;;;;;9.00;9.00;;;;;19.48;100.00;100907.22;5076307;27;45359;-74
2022/08/05 07:38:58;;;;;;;;;10.75;10.25;;;;;19.46;99.79;100884.28;5075927;27;46579;-74
2022/08/05 07:41:24;;;;;;;;;9.00;9.00;;;;;19.61;99.60;100893.84;5075589;28;45450;-73
2022/08/05 07:43:50;;;;;;;;;6.75;6.75;;;;;19.75;99.37;100910.66;5075708;28;45734;-74
2022/08/05 07:46:15;;;;;;;;;7.00;7.00;;;;;19.84;99.29;100910.81;5076082;28;45581;-74
2022/08/05 07:48:41;;;;;;;;;11.75;11.75;;;;;19.98;98.26;100911.66;5076038;27;45429;-74
2022/08/05 07:51:06;;;;;;;;;7.75;7.75;;;;;20.07;97.91;100915.41;5075826;27;45287;-73
2022/08/05 07:53:32;;;;;;;;;9.00;9.00;;;;;20.13;97.79;100917.63;5076196;28;45396;-74
2022/08/05 07:55:57;;;;;;;;;10.50;10.50;;;;;20.15;96.56;100915.72;5075955;28;45536;-77
2022/08/05 07:58:22;;;;;;;;;9.75;9.75;;;;;20.21;96.41;100917.94;5075163;28;45618;-75
2022/08/05 08:00:49;;;;;;;;;11.00;11.00;;;;;20.23;94.88;100926.69;5075215;28;45349;-74
2022/08/05 08:03:15;;;;;;;;;7.50;7.50;;;;;20.22;95.94;100916.97;5075451;27;45508;-74
2022/08/05 08:05:42;;;;;;;;;8.25;8.25;;;;;20.36;95.15;100931.91;5075387;28;45342;-74
2022/08/05 08:08:11;;;;;;;;;12.75;12.75;;;;;20.45;95.14;100933.06;5075124;28;45444;-74
2022/08/05 08:10:36;;;;;;;;;9.25;9.25;;;;;20.53;95.01;100927.97;5074993;28;45392;-74
2022/08/05 08:13:02;;;;;;;;;13.25;13.25;;;;;20.66;94.46;100937.72;5074305;27;45740;-74
2022/08/05 08:15:28;;;;;;;;;20.50;17.25;;;;;20.77;94.32;100943.06;5075410;27;45289;-76
2022/08/05 08:17:54;;;;;;;;;10.25;10.25;;;;;20.80;93.55;100942.84;5075212;28;45421;-75
2022/08/05 08:20:24;;;;;;;;;10.00;10.00;;;;;20.87;93.65;100941.41;5075249;28;45277;-75
2022/08/05 08:22:59;;;;;;;;;9.25;9.25;;;;;21.01;93.76;100952.84;5076004;28;45259;-74
2022/08/05 08:25:27;;;;;;;;;8.25;8.25;;;;;21.05;91.01;100942.75;5076183;27;45386;-75
2022/08/05 08:27:53;;;;;;;;;8.75;8.75;;;;;21.07;91.31;100955.03;5078746;27;45344;-75
2022/08/05 08:30:18;;;;;;;;;9.25;9.25;;;;;21.07;90.62;100952.34;5078857;28;45444;-75
2022/08/05 08:32:43;;;;;;;;;6.75;6.75;;;;;21.11;88.64;100961.84;5079364;27;45647;-75
2022/08/05 08:35:09;;;;;;;;;8.00;8.00;;;;;21.14;90.97;100966.94;5078818;27;45284;-73
2022/08/05 08:37:34;;;;;;;;;10.75;10.75;;;;;21.16;90.48;100969.50;5078452;27;46537;-75
2022/08/05 08:40:00;;;;;;;;;9.25;9.00;;;;;21.19;90.54;100968.41;5078806;28;45489;-74
2022/08/05 08:42:26;;;;;;;;;7.25;6.50;;;;;21.33;89.80;100970.00;5094595;27;45424;-74
2022/08/05 08:44:56;;;;;;;;;8.50;8.50;;;;;21.37;88.82;100969.63;5079040;27;45468;-74
2022/08/05 08:47:24;;;;;;;;;9.00;9.00;;;;;21.51;89.35;100978.38;5078431;27;45572;-75
2022/08/05 08:49:53;;;;;;;;;7.25;7.25;;;;;21.58;89.68;100971.56;5078259;27;45239;-74
2022/08/05 08:52:29;;;;;;;;;8.25;8.25;;;;;21.73;89.79;100981.03;5078222;27;45199;-74
2022/08/05 08:54:55;;;;;;;;;4.25;4.25;;;;;21.86;87.68;100985.41;5078735;27;45387;-75
2022/08/05 08:57:21;;;;;;;;;8.50;8.25;;;;;21.90;85.92;100981.50;5078883;28;46450;-74
2022/08/05 08:59:48;;;;;;;;;8.50;8.50;;;;;21.94;86.09;100982.94;5078332;28;46169;-75
2022/08/05 09:02:16;;;;;;;;;6.25;6.25;;;;;21.96;84.70;100989.03;5080644;27;45363;-75
2022/08/05 09:04:44;;;;;;;;;7.00;7.00;;;;;21.99;83.64;100995.97;5082310;27;45279;-75
2022/08/05 09:07:09;;;;;;;;;7.00;7.00;;;;;22.05;85.39;100990.09;5078254;28;46306;-74
2022/08/05 09:09:36;;;;;;;;;7.25;7.25;;;;;22.14;83.98;100997.38;5078328;27;45327;-74
2022/08/05 09:12:03;;;;;;;;;6.25;6.25;;;;;22.18;85.09;100996.13;5078544;27;45428;-74
2022/08/05 09:14:31;;;;;;;;;6.50;6.50;;;;;22.28;82.04;100990.00;5076948;27;45338;-75
2022/08/05 09:16:58;;;;;;;;;5.50;5.50;;;;;22.19;81.11;100975.53;5077901;27;46364;-73
2022/08/05 09:19:24;;;;;;;;;6.75;6.75;;;;;22.37;81.62;100989.25;5077801;27;45496;-73
2022/08/05 09:21:49;;;;;;;;;5.25;5.25;;;;;22.44;81.96;100989.59;5078049;27;45447;-74
2022/08/05 09:24:15;;;;;;;;;6.00;6.00;;;;;22.41;81.34;100990.69;5078152;27;45280;-75
2022/08/05 09:26:45;;;;;;;;;6.50;6.50;;;;;22.44;83.40;100992.28;5077887;28;45525;-75
2022/08/05 09:29:10;;;;;;;;;6.25;6.25;;;;;22.54;83.48;101006.63;5078382;27;45357;-75
2022/08/05 09:31:35;;;;;;;;;8.75;8.75;;;;;22.65;82.51;101007.53;5081149;27;45371;-76
2022/08/05 09:34:06;;;;;;;;;8.75;8.75;;;;;22.69;70.90;100995.56;5083000;27;45214;-75
2022/08/05 09:36:39;;;;;;;;;7.50;6.75;;;;;22.77;79.68;101003.81;5091932;27;45295;-73
2022/08/05 09:39:07;;;;;;;;;7.50;7.50;;;;;22.80;80.29;101011.59;5085001;27;45478;-75
2022/08/05 09:41:34;;;;;;;;;7.00;7.00;;;;;22.80;80.25;101000.88;5079656;27;45474;-75
2022/08/05 09:43:59;;;;;;;;;8.00;8.00;;;;;22.88;82.23;101011.78;5078252;28;45550;-75
2022/08/05 09:46:48;;;;;;;;;7.25;7.25;;;;;22.95;80.45;101003.22;5076020;27;47009;-76
2022/08/05 09:49:23;;;;;;;;;11.00;11.00;;;;;22.99;80.91;101005.50;5078521;27;45235;-75
2022/08/05 09:51:50;;;;;;;;;11.50;11.50;;;;;23.04;80.48;101002.41;5077320;27;45202;-74
2022/08/05 09:54:15;;;;;;;;;11.50;11.50;;;;;23.04;80.35;101005.09;5077727;28;45544;-74
2022/08/05 09:56:45;;;;;;;;;10.75;10.75;;;;;23.09;81.30;101010.91;5076992;28;46203;-74
2022/08/05 09:59:13;;;;;;;;;9.75;9.75;;;;;23.30;81.42;101016.28;5077353;27;45309;-74
2022/08/05 10:01:42;;;;;;;;;9.00;9.00;;;;;23.40;79.24;101015.47;5077263;27;45345;-73
2022/08/05 10:04:13;;;;;;;;;10.50;10.50;;;;;23.53;80.86;101012.56;5077575;27;45518;-75
2022/08/05 10:06:55;;;;;;;;;11.00;11.00;;;;;23.81;78.43;101015.47;5092908;27;47264;-74
2022/08/05 10:09:21;;;;;;;;;11.75;11.75;;;;;23.81;79.51;101024.34;5092576;27;45409;-76
2022/08/05 10:11:47;;;;;;;;;13.00;13.00;;;;;23.65;72.65;101016.84;5076692;27;45311;-75
2022/08/05 10:14:22;;;;;;;;;13.75;13.50;;;;;23.61;79.37;101020.78;5077001;27;45543;-75
2022/08/05 10:16:48;;;;;;;;;12.50;11.50;;;;;23.84;79.48;101017.88;5076917;27;46595;-73
2022/08/05 10:19:14;;;;;;;;;6.75;6.75;;;;;24.13;79.45;101009.88;5076503;27;45323;-75
2022/08/05 10:21:39;;;;;;;;;10.50;10.50;;;;;24.36;77.57;101012.28;5077024;27;45393;-75
2022/08/05 10:24:06;;;;;;;;;7.25;7.25;;;;;24.54;77.27;101009.75;5077585;27;45322;-73
2022/08/05 10:26:32;;;;;;;;;9.00;8.75;;;;;24.74;77.29;101009.75;5076597;27;46186;-74
2022/08/05 10:28:57;;;;;;;;;8.00;8.00;;;;;24.64;75.44;101015.09;5075630;27;45344;-74
2022/08/05 10:31:23;;;;;;;;;8.00;8.00;;;;;24.43;75.46;101013.44;5075565;28;45316;-75
2022/08/05 10:33:48;;;;;;;;;8.00;8.00;;;;;24.29;75.46;101017.38;5077417;27;45319;-75
2022/08/05 10:36:14;;;;;;;;;8.00;8.00;;;;;24.32;76.85;101021.63;5076918;27;45886;-75
2022/08/05 10:38:45;;;;;;;;;11.00;11.00;;;;;24.48;76.37;101008.47;5077015;27;45345;-74
2022/08/05 10:41:24;;;;;;;;;6.25;6.25;;;;;24.69;74.95;101004.75;5076535;27;45217;-75
2022/08/05 10:43:57;;;;;;;;;7.00;7.00;;;;;24.99;74.93;101021.75;5077036;27;45432;-74
2022/08/05 10:46:23;;;;;;;;;6.75;6.25;;;;;25.19;74.83;101014.44;5076693;27;45406;-75
2022/08/05 10:48:54;;;;;;;;;6.25;6.25;;;;;25.29;72.88;101010.84;5075457;27;45441;-76
2022/08/05 10:51:21;;;;;;;;;7.50;7.50;;;;;25.22;74.97;101010.63;5076684;27;45399;-75
2022/08/05 10:53:49;;;;;;;;;8.50;8.50;;;;;25.18;72.58;101017.28;5076679;27;45275;-73
2022/08/05 10:56:22;;;;;;;;;7.75;7.75;;;;;25.19;73.34;101025.19;5075201;27;48695;-76
2022/08/05 10:58:52;;;;;;;;;6.50;6.50;;;;;25.30;73.77;101020.63;5076792;27;45355;-76
2022/08/05 11:01:27;;;;;;;;;6.25;6.25;;;;;25.26;72.57;101027.31;5077931;27;45306;-75
2022/08/05 11:03:59;;;;;;;;;9.75;9.75;;;;;25.32;73.42;101022.19;5077752;27;45316;-74
2022/08/05 11:06:24;;;;;;;;;7.75;7.75;;;;;25.58;69.69;101034.16;5076904;27;46668;-75
2022/08/05 11:09:17;;;;;;;;;7.00;7.00;;;;;25.92;72.50;101033.53;5076691;27;45484;-76
2022/08/05 11:11:45;;;;;;;;;8.25;8.25;;;;;26.24;72.55;101034.91;5076204;27;45430;-75
2022/08/05 11:14:21;;;;;;;;;4.50;4.50;;;;;26.13;68.33;101041.34;5075286;27;45624;-77
2022/08/05 11:17:25;;;;;;;;;9.75;9.75;;;;;25.88;66.66;101042.94;5074974;28;45508;-75
2022/08/05 11:19:52;;;;;;;;;6.25;6.25;;;;;25.77;68.86;101052.06;5076736;27;45426;-76
2022/08/05 11:22:37;;;;;;;;;7.25;7.25;;;;;25.99;68.89;101044.59;5076399;27;45463;-74